KCGF/CGF METAR and TAF weather

Enter ICAO airport designator
Station Type Date Time Source
KCGF METAR 2022/11/26 09:55 UTC NOAA

KCGF 260955Z AUTO 22006KT 10SM CLR 01/M02 A3013 RMK AO2 T00111018


Station Type Date Time Source
KCGF Decoded METAR 2022/11/26 09:55 UTC NOAA

Cleveland / Cuyahoga, OH, United States (KCGF) 41-34N 081-29W
Nov 26, 2022 - 04:55 AM EST / 2022.11.26 0955 UTC
Wind: from the SW (220 degrees) at 7 MPH (6 KT):0
Visibility: 10 mile(s):0
Sky conditions: clear
Temperature: 34.0 F (1.1 C)
Windchill: 28 F (-2 C):1
Dew Point: 28.8 F (-1.8 C)
Relative Humidity: 80%
Pressure (altimeter): 30.13 in. Hg (1020 hPa)
ob: KCGF 260955Z AUTO 22006KT 10SM CLR 01/M02 A3013 RMK AO2 T00111018
cycle: 10

Station Type Date Time Source
KCGF TAF 2016/07/19 12:36 UTC NOAA

TAF KCGF 191136Z 1912/2012 VRB05KT P6SM SCT080
FM191400 33008KT P6SM SCT040
FM191900 35008KT P6SM SCT060
FM200000 04003KT P6SM SCT080
FM200700 14003KT P6SM SKC

Example: see airport list